sensor_id;sensor_type;location;lat;lon;timestamp;P1;durP1;ratioP1;P2;durP2;ratioP2
13374;SDS011;6756;51.354;15.754;2023-07-20T00:00:01;3.73;;;2.23;;
13374;SDS011;6756;51.354;15.754;2023-07-20T00:04:05;3.80;;;2.43;;
13374;SDS011;6756;51.354;15.754;2023-07-20T00:08:06;4.10;;;2.70;;
13374;SDS011;6756;51.354;15.754;2023-07-20T00:12:07;3.30;;;2.50;;
13374;SDS011;6756;51.354;15.754;2023-07-20T00:16:08;3.50;;;2.57;;
13374;SDS011;6756;51.354;15.754;2023-07-20T00:20:09;3.67;;;2.27;;
13374;SDS011;6756;51.354;15.754;2023-07-20T00:24:13;5.50;;;2.90;;
13374;SDS011;6756;51.354;15.754;2023-07-20T00:28:14;2.87;;;2.43;;
13374;SDS011;6756;51.354;15.754;2023-07-20T00:32:15;3.57;;;2.47;;
13374;SDS011;6756;51.354;15.754;2023-07-20T00:36:16;4.53;;;2.60;;
13374;SDS011;6756;51.354;15.754;2023-07-20T00:40:21;4.97;;;2.90;;
13374;SDS011;6756;51.354;15.754;2023-07-20T00:44:21;3.83;;;2.40;;
13374;SDS011;6756;51.354;15.754;2023-07-20T00:48:22;4.53;;;2.97;;
13374;SDS011;6756;51.354;15.754;2023-07-20T00:52:26;4.30;;;2.83;;
13374;SDS011;6756;51.354;15.754;2023-07-20T00:56:28;5.27;;;3.20;;
13374;SDS011;6756;51.354;15.754;2023-07-20T01:00:29;4.00;;;2.90;;
13374;SDS011;6756;51.354;15.754;2023-07-20T01:04:31;3.93;;;2.57;;
13374;SDS011;6756;51.354;15.754;2023-07-20T01:08:33;5.23;;;2.73;;
13374;SDS011;6756;51.354;15.754;2023-07-20T01:12:42;5.03;;;2.57;;
13374;SDS011;6756;51.354;15.754;2023-07-20T01:16:46;3.80;;;2.73;;
13374;SDS011;6756;51.354;15.754;2023-07-20T01:20:49;5.53;;;3.10;;
13374;SDS011;6756;51.354;15.754;2023-07-20T01:33:34;3.70;;;2.83;;
13374;SDS011;6756;51.354;15.754;2023-07-20T01:37:36;3.83;;;2.83;;
13374;SDS011;6756;51.354;15.754;2023-07-20T01:41:38;4.17;;;3.17;;
13374;SDS011;6756;51.354;15.754;2023-07-20T01:45:38;4.13;;;2.83;;
13374;SDS011;6756;51.354;15.754;2023-07-20T01:49:39;4.20;;;3.03;;
13374;SDS011;6756;51.354;15.754;2023-07-20T01:53:40;5.33;;;3.50;;
13374;SDS011;6756;51.354;15.754;2023-07-20T01:57:41;5.57;;;3.70;;
13374;SDS011;6756;51.354;15.754;2023-07-20T02:01:42;6.43;;;3.67;;
13374;SDS011;6756;51.354;15.754;2023-07-20T02:05:43;4.83;;;3.40;;
13374;SDS011;6756;51.354;15.754;2023-07-20T02:09:45;3.93;;;3.30;;
13374;SDS011;6756;51.354;15.754;2023-07-20T02:13:45;6.27;;;3.50;;
13374;SDS011;6756;51.354;15.754;2023-07-20T02:17:46;4.77;;;3.27;;
13374;SDS011;6756;51.354;15.754;2023-07-20T02:21:47;4.83;;;3.90;;
13374;SDS011;6756;51.354;15.754;2023-07-20T02:25:48;5.00;;;3.73;;
13374;SDS011;6756;51.354;15.754;2023-07-20T02:29:49;6.17;;;4.10;;
13374;SDS011;6756;51.354;15.754;2023-07-20T02:33:50;4.57;;;3.73;;
13374;SDS011;6756;51.354;15.754;2023-07-20T02:37:51;4.87;;;3.80;;
13374;SDS011;6756;51.354;15.754;2023-07-20T02:41:52;4.43;;;3.20;;
13374;SDS011;6756;51.354;15.754;2023-07-20T02:45:53;5.63;;;3.00;;
13374;SDS011;6756;51.354;15.754;2023-07-20T02:49:54;4.37;;;3.30;;
13374;SDS011;6756;51.354;15.754;2023-07-20T02:53:55;4.50;;;3.30;;
13374;SDS011;6756;51.354;15.754;2023-07-20T02:57:55;4.87;;;3.80;;
13374;SDS011;6756;51.354;15.754;2023-07-20T03:01:56;3.67;;;3.33;;
13374;SDS011;6756;51.354;15.754;2023-07-20T03:05:57;4.70;;;3.83;;
13374;SDS011;6756;51.354;15.754;2023-07-20T03:09:59;4.40;;;3.77;;
13374;SDS011;6756;51.354;15.754;2023-07-20T03:14:00;5.17;;;4.13;;
13374;SDS011;6756;51.354;15.754;2023-07-20T03:18:01;4.03;;;3.63;;
13374;SDS011;6756;51.354;15.754;2023-07-20T03:22:04;5.60;;;3.90;;
13374;SDS011;6756;51.354;15.754;2023-07-20T03:26:04;4.57;;;4.13;;
13374;SDS011;6756;51.354;15.754;2023-07-20T03:30:08;4.50;;;3.80;;
13374;SDS011;6756;51.354;15.754;2023-07-20T03:34:09;5.57;;;4.07;;
13374;SDS011;6756;51.354;15.754;2023-07-20T03:38:10;5.83;;;3.90;;
13374;SDS011;6756;51.354;15.754;2023-07-20T03:42:11;5.37;;;3.77;;
13374;SDS011;6756;51.354;15.754;2023-07-20T03:46:12;7.73;;;3.53;;
13374;SDS011;6756;51.354;15.754;2023-07-20T03:50:13;5.07;;;4.20;;
13374;SDS011;6756;51.354;15.754;2023-07-20T03:54:14;4.27;;;3.70;;
13374;SDS011;6756;51.354;15.754;2023-07-20T03:58:15;5.90;;;4.17;;
13374;SDS011;6756;51.354;15.754;2023-07-20T04:02:22;6.80;;;4.33;;
13374;SDS011;6756;51.354;15.754;2023-07-20T04:06:23;7.17;;;4.37;;
13374;SDS011;6756;51.354;15.754;2023-07-20T04:10:24;6.70;;;4.57;;
13374;SDS011;6756;51.354;15.754;2023-07-20T04:14:24;8.00;;;3.93;;
13374;SDS011;6756;51.354;15.754;2023-07-20T04:18:25;5.30;;;4.30;;
13374;SDS011;6756;51.354;15.754;2023-07-20T04:22:26;6.30;;;4.17;;
13374;SDS011;6756;51.354;15.754;2023-07-20T04:26:27;9.10;;;3.90;;
13374;SDS011;6756;51.354;15.754;2023-07-20T04:30:28;4.93;;;4.30;;
13374;SDS011;6756;51.354;15.754;2023-07-20T04:34:29;7.03;;;3.93;;
13374;SDS011;6756;51.354;15.754;2023-07-20T04:38:30;4.47;;;3.77;;
13374;SDS011;6756;51.354;15.754;2023-07-20T04:42:30;4.73;;;3.90;;
13374;SDS011;6756;51.354;15.754;2023-07-20T04:46:31;5.13;;;3.87;;
13374;SDS011;6756;51.354;15.754;2023-07-20T04:50:32;6.93;;;4.00;;
13374;SDS011;6756;51.354;15.754;2023-07-20T04:54:33;9.53;;;4.00;;
13374;SDS011;6756;51.354;15.754;2023-07-20T04:58:34;7.77;;;4.07;;
13374;SDS011;6756;51.354;15.754;2023-07-20T05:02:35;7.67;;;3.90;;
13374;SDS011;6756;51.354;15.754;2023-07-20T05:06:36;7.13;;;3.27;;
13374;SDS011;6756;51.354;15.754;2023-07-20T05:10:38;4.70;;;3.37;;
13374;SDS011;6756;51.354;15.754;2023-07-20T05:14:39;7.27;;;2.97;;
13374;SDS011;6756;51.354;15.754;2023-07-20T05:18:41;5.53;;;4.10;;
13374;SDS011;6756;51.354;15.754;2023-07-20T05:22:43;3.40;;;3.10;;
13374;SDS011;6756;51.354;15.754;2023-07-20T05:26:46;4.70;;;3.63;;
13374;SDS011;6756;51.354;15.754;2023-07-20T05:30:48;5.23;;;3.43;;
13374;SDS011;6756;51.354;15.754;2023-07-20T05:34:51;5.40;;;3.27;;
13374;SDS011;6756;51.354;15.754;2023-07-20T05:38:52;4.83;;;3.50;;
13374;SDS011;6756;51.354;15.754;2023-07-20T05:42:54;9.43;;;3.93;;
13374;SDS011;6756;51.354;15.754;2023-07-20T05:46:56;5.80;;;3.07;;
13374;SDS011;6756;51.354;15.754;2023-07-20T05:50:57;3.47;;;2.83;;
13374;SDS011;6756;51.354;15.754;2023-07-20T05:54:58;4.83;;;3.10;;
13374;SDS011;6756;51.354;15.754;2023-07-20T05:58:59;4.27;;;3.30;;
13374;SDS011;6756;51.354;15.754;2023-07-20T06:03:00;3.73;;;3.30;;
13374;SDS011;6756;51.354;15.754;2023-07-20T06:07:00;4.10;;;3.20;;
13374;SDS011;6756;51.354;15.754;2023-07-20T06:11:01;3.63;;;3.33;;
13374;SDS011;6756;51.354;15.754;2023-07-20T06:15:03;3.13;;;2.87;;
13374;SDS011;6756;51.354;15.754;2023-07-20T06:19:05;4.43;;;2.93;;
13374;SDS011;6756;51.354;15.754;2023-07-20T06:23:06;4.00;;;3.23;;
13374;SDS011;6756;51.354;15.754;2023-07-20T06:27:07;5.27;;;3.10;;
13374;SDS011;6756;51.354;15.754;2023-07-20T06:31:07;3.33;;;3.03;;
13374;SDS011;6756;51.354;15.754;2023-07-20T06:35:08;4.90;;;2.60;;
13374;SDS011;6756;51.354;15.754;2023-07-20T06:39:09;3.67;;;2.90;;
13374;SDS011;6756;51.354;15.754;2023-07-20T06:43:10;3.90;;;3.23;;
13374;SDS011;6756;51.354;15.754;2023-07-20T06:47:11;4.50;;;2.97;;
13374;SDS011;6756;51.354;15.754;2023-07-20T06:51:12;3.23;;;2.90;;
13374;SDS011;6756;51.354;15.754;2023-07-20T06:55:13;3.63;;;2.80;;
13374;SDS011;6756;51.354;15.754;2023-07-20T06:59:14;8.43;;;2.60;;
13374;SDS011;6756;51.354;15.754;2023-07-20T07:03:16;3.40;;;2.60;;
13374;SDS011;6756;51.354;15.754;2023-07-20T07:07:16;3.70;;;2.60;;
13374;SDS011;6756;51.354;15.754;2023-07-20T07:11:17;2.97;;;2.40;;
13374;SDS011;6756;51.354;15.754;2023-07-20T07:15:18;2.83;;;2.23;;
13374;SDS011;6756;51.354;15.754;2023-07-20T07:19:19;3.07;;;2.27;;
13374;SDS011;6756;51.354;15.754;2023-07-20T07:23:20;3.73;;;2.43;;
13374;SDS011;6756;51.354;15.754;2023-07-20T07:27:21;2.63;;;2.10;;
13374;SDS011;6756;51.354;15.754;2023-07-20T07:31:24;2.27;;;1.70;;
13374;SDS011;6756;51.354;15.754;2023-07-20T07:35:34;3.00;;;1.77;;
13374;SDS011;6756;51.354;15.754;2023-07-20T07:39:40;2.37;;;1.50;;
13374;SDS011;6756;51.354;15.754;2023-07-20T07:43:42;2.00;;;1.80;;
13374;SDS011;6756;51.354;15.754;2023-07-20T07:47:43;2.93;;;1.83;;
13374;SDS011;6756;51.354;15.754;2023-07-20T07:51:44;3.53;;;2.10;;
13374;SDS011;6756;51.354;15.754;2023-07-20T07:55:49;2.03;;;1.60;;
13374;SDS011;6756;51.354;15.754;2023-07-20T07:59:50;2.77;;;1.60;;
13374;SDS011;6756;51.354;15.754;2023-07-20T08:03:51;1.60;;;1.33;;
13374;SDS011;6756;51.354;15.754;2023-07-20T08:07:52;1.83;;;1.40;;
13374;SDS011;6756;51.354;15.754;2023-07-20T08:11:53;1.20;;;1.10;;
13374;SDS011;6756;51.354;15.754;2023-07-20T08:15:56;1.67;;;1.00;;
13374;SDS011;6756;51.354;15.754;2023-07-20T08:19:57;2.57;;;1.20;;
13374;SDS011;6756;51.354;15.754;2023-07-20T08:23:58;2.87;;;1.63;;
13374;SDS011;6756;51.354;15.754;2023-07-20T08:27:59;2.23;;;1.30;;
13374;SDS011;6756;51.354;15.754;2023-07-20T08:32:01;1.30;;;1.20;;
13374;SDS011;6756;51.354;15.754;2023-07-20T08:36:05;1.50;;;1.40;;
13374;SDS011;6756;51.354;15.754;2023-07-20T08:40:06;1.67;;;1.40;;
13374;SDS011;6756;51.354;15.754;2023-07-20T08:44:10;1.37;;;1.27;;
13374;SDS011;6756;51.354;15.754;2023-07-20T08:48:11;2.50;;;1.57;;
13374;SDS011;6756;51.354;15.754;2023-07-20T08:52:13;2.03;;;1.60;;
13374;SDS011;6756;51.354;15.754;2023-07-20T08:56:13;2.90;;;1.50;;
13374;SDS011;6756;51.354;15.754;2023-07-20T09:00:16;2.17;;;1.60;;
13374;SDS011;6756;51.354;15.754;2023-07-20T09:04:19;4.40;;;2.20;;
13374;SDS011;6756;51.354;15.754;2023-07-20T09:08:20;3.77;;;2.47;;
13374;SDS011;6756;51.354;15.754;2023-07-20T09:12:21;3.93;;;2.57;;
13374;SDS011;6756;51.354;15.754;2023-07-20T09:16:22;3.17;;;2.83;;
13374;SDS011;6756;51.354;15.754;2023-07-20T09:20:23;3.20;;;3.00;;
13374;SDS011;6756;51.354;15.754;2023-07-20T09:24:24;3.03;;;2.73;;
13374;SDS011;6756;51.354;15.754;2023-07-20T09:28:29;3.47;;;2.60;;
13374;SDS011;6756;51.354;15.754;2023-07-20T09:32:38;3.23;;;2.93;;
13374;SDS011;6756;51.354;15.754;2023-07-20T09:36:43;4.10;;;2.70;;
13374;SDS011;6756;51.354;15.754;2023-07-20T09:45:41;3.33;;;2.67;;
13374;SDS011;6756;51.354;15.754;2023-07-20T09:49:43;2.77;;;2.53;;
13374;SDS011;6756;51.354;15.754;2023-07-20T09:53:44;3.33;;;2.83;;
13374;SDS011;6756;51.354;15.754;2023-07-20T09:57:46;2.53;;;2.33;;
13374;SDS011;6756;51.354;15.754;2023-07-20T10:01:51;2.70;;;2.30;;
13374;SDS011;6756;51.354;15.754;2023-07-20T10:05:57;2.57;;;1.97;;
13374;SDS011;6756;51.354;15.754;2023-07-20T10:10:03;3.63;;;1.77;;
13374;SDS011;6756;51.354;15.754;2023-07-20T10:14:06;2.20;;;1.97;;
13374;SDS011;6756;51.354;15.754;2023-07-20T10:18:18;1.90;;;1.80;;
13374;SDS011;6756;51.354;15.754;2023-07-20T10:22:35;2.57;;;1.53;;
13374;SDS011;6756;51.354;15.754;2023-07-20T10:26:39;2.57;;;1.90;;
13374;SDS011;6756;51.354;15.754;2023-07-20T10:30:41;1.97;;;1.80;;
13374;SDS011;6756;51.354;15.754;2023-07-20T10:34:42;2.47;;;1.93;;
13374;SDS011;6756;51.354;15.754;2023-07-20T10:38:54;2.10;;;1.40;;
13374;SDS011;6756;51.354;15.754;2023-07-20T10:47:11;1.53;;;1.20;;
13374;SDS011;6756;51.354;15.754;2023-07-20T10:51:22;1.50;;;1.27;;
13374;SDS011;6756;51.354;15.754;2023-07-20T10:55:23;1.00;;;0.90;;
13374;SDS011;6756;51.354;15.754;2023-07-20T11:03:30;2.70;;;0.80;;
13374;SDS011;6756;51.354;15.754;2023-07-20T11:07:38;1.00;;;0.90;;
13374;SDS011;6756;51.354;15.754;2023-07-20T11:11:39;0.87;;;0.80;;
13374;SDS011;6756;51.354;15.754;2023-07-20T11:16:13;1.00;;;0.60;;
13374;SDS011;6756;51.354;15.754;2023-07-20T11:20:08;0.63;;;0.50;;
13374;SDS011;6756;51.354;15.754;2023-07-20T11:24:13;1.33;;;1.20;;
13374;SDS011;6756;51.354;15.754;2023-07-20T11:28:14;1.50;;;1.40;;
13374;SDS011;6756;51.354;15.754;2023-07-20T11:32:22;1.63;;;1.30;;
13374;SDS011;6756;51.354;15.754;2023-07-20T11:36:26;2.10;;;1.07;;
13374;SDS011;6756;51.354;15.754;2023-07-20T11:40:28;1.40;;;0.93;;
13374;SDS011;6756;51.354;15.754;2023-07-20T11:44:29;3.10;;;1.60;;
13374;SDS011;6756;51.354;15.754;2023-07-20T11:48:30;2.63;;;1.17;;
13374;SDS011;6756;51.354;15.754;2023-07-20T11:52:31;1.57;;;0.70;;
13374;SDS011;6756;51.354;15.754;2023-07-20T11:56:32;1.17;;;0.90;;
13374;SDS011;6756;51.354;15.754;2023-07-20T12:00:33;1.10;;;0.90;;
13374;SDS011;6756;51.354;15.754;2023-07-20T12:04:35;1.37;;;0.73;;
13374;SDS011;6756;51.354;15.754;2023-07-20T12:08:43;1.33;;;0.70;;
13374;SDS011;6756;51.354;15.754;2023-07-20T12:12:45;1.10;;;0.60;;
13374;SDS011;6756;51.354;15.754;2023-07-20T12:16:51;1.63;;;0.50;;
13374;SDS011;6756;51.354;15.754;2023-07-20T12:20:58;0.60;;;0.50;;
13374;SDS011;6756;51.354;15.754;2023-07-20T12:24:59;0.70;;;0.60;;
13374;SDS011;6756;51.354;15.754;2023-07-20T12:29:00;2.50;;;0.70;;
13374;SDS011;6756;51.354;15.754;2023-07-20T12:33:04;1.23;;;0.60;;
13374;SDS011;6756;51.354;15.754;2023-07-20T12:37:05;2.10;;;0.70;;
13374;SDS011;6756;51.354;15.754;2023-07-20T12:41:10;1.73;;;0.70;;
13374;SDS011;6756;51.354;15.754;2023-07-20T12:45:14;0.80;;;0.70;;
13374;SDS011;6756;51.354;15.754;2023-07-20T12:49:15;0.80;;;0.60;;
13374;SDS011;6756;51.354;15.754;2023-07-20T12:53:19;0.90;;;0.80;;
13374;SDS011;6756;51.354;15.754;2023-07-20T12:57:20;1.37;;;0.80;;
13374;SDS011;6756;51.354;15.754;2023-07-20T13:01:22;2.87;;;0.80;;
13374;SDS011;6756;51.354;15.754;2023-07-20T13:05:24;0.70;;;0.70;;
13374;SDS011;6756;51.354;15.754;2023-07-20T13:09:27;0.93;;;0.50;;
13374;SDS011;6756;51.354;15.754;2023-07-20T13:13:34;2.43;;;0.80;;
13374;SDS011;6756;51.354;15.754;2023-07-20T13:17:35;1.00;;;0.70;;
13374;SDS011;6756;51.354;15.754;2023-07-20T13:21:37;0.70;;;0.50;;
13374;SDS011;6756;51.354;15.754;2023-07-20T13:25:38;2.30;;;0.60;;
13374;SDS011;6756;51.354;15.754;2023-07-20T13:29:39;1.30;;;0.60;;
13374;SDS011;6756;51.354;15.754;2023-07-20T13:33:40;0.70;;;0.40;;
13374;SDS011;6756;51.354;15.754;2023-07-20T13:37:42;1.03;;;0.60;;
13374;SDS011;6756;51.354;15.754;2023-07-20T13:41:52;1.33;;;0.50;;
13374;SDS011;6756;51.354;15.754;2023-07-20T13:45:54;1.27;;;0.40;;
13374;SDS011;6756;51.354;15.754;2023-07-20T13:49:55;0.60;;;0.47;;
13374;SDS011;6756;51.354;15.754;2023-07-20T13:53:57;2.07;;;0.50;;
13374;SDS011;6756;51.354;15.754;2023-07-20T13:58:02;1.17;;;0.50;;
13374;SDS011;6756;51.354;15.754;2023-07-20T14:02:03;1.83;;;0.90;;
13374;SDS011;6756;51.354;15.754;2023-07-20T14:06:04;0.50;;;0.50;;
13374;SDS011;6756;51.354;15.754;2023-07-20T14:10:06;1.30;;;0.60;;
13374;SDS011;6756;51.354;15.754;2023-07-20T14:14:07;1.10;;;0.60;;
13374;SDS011;6756;51.354;15.754;2023-07-20T14:18:11;2.00;;;0.70;;
13374;SDS011;6756;51.354;15.754;2023-07-20T14:22:12;0.43;;;0.40;;
13374;SDS011;6756;51.354;15.754;2023-07-20T14:26:13;1.10;;;0.50;;
13374;SDS011;6756;51.354;15.754;2023-07-20T14:30:17;1.53;;;0.57;;
13374;SDS011;6756;51.354;15.754;2023-07-20T14:34:19;0.60;;;0.50;;
13374;SDS011;6756;51.354;15.754;2023-07-20T14:38:22;2.60;;;0.60;;
13374;SDS011;6756;51.354;15.754;2023-07-20T14:42:23;1.63;;;0.60;;
13374;SDS011;6756;51.354;15.754;2023-07-20T14:46:24;3.60;;;0.63;;
13374;SDS011;6756;51.354;15.754;2023-07-20T14:50:25;0.80;;;0.60;;
13374;SDS011;6756;51.354;15.754;2023-07-20T14:54:26;1.73;;;0.63;;
13374;SDS011;6756;51.354;15.754;2023-07-20T14:58:31;2.63;;;0.60;;
13374;SDS011;6756;51.354;15.754;2023-07-20T15:02:32;3.43;;;0.43;;
13374;SDS011;6756;51.354;15.754;2023-07-20T15:06:36;0.97;;;0.63;;
13374;SDS011;6756;51.354;15.754;2023-07-20T15:10:37;1.07;;;0.60;;
13374;SDS011;6756;51.354;15.754;2023-07-20T15:14:41;1.13;;;0.40;;
13374;SDS011;6756;51.354;15.754;2023-07-20T15:18:43;2.20;;;0.50;;
13374;SDS011;6756;51.354;15.754;2023-07-20T15:22:44;2.43;;;1.10;;
13374;SDS011;6756;51.354;15.754;2023-07-20T15:26:51;3.87;;;0.80;;
13374;SDS011;6756;51.354;15.754;2023-07-20T15:31:13;0.80;;;0.50;;
13374;SDS011;6756;51.354;15.754;2023-07-20T15:35:12;1.00;;;0.60;;
13374;SDS011;6756;51.354;15.754;2023-07-20T15:39:13;1.33;;;0.73;;
13374;SDS011;6756;51.354;15.754;2023-07-20T15:43:15;0.77;;;0.70;;
13374;SDS011;6756;51.354;15.754;2023-07-20T15:47:16;0.60;;;0.57;;
13374;SDS011;6756;51.354;15.754;2023-07-20T15:51:16;1.13;;;0.70;;
13374;SDS011;6756;51.354;15.754;2023-07-20T15:55:21;0.83;;;0.67;;
13374;SDS011;6756;51.354;15.754;2023-07-20T15:59:22;1.90;;;0.70;;
13374;SDS011;6756;51.354;15.754;2023-07-20T16:03:23;1.50;;;0.90;;
13374;SDS011;6756;51.354;15.754;2023-07-20T16:07:34;1.33;;;0.70;;
13374;SDS011;6756;51.354;15.754;2023-07-20T16:11:38;1.53;;;0.60;;
13374;SDS011;6756;51.354;15.754;2023-07-20T16:15:39;0.87;;;0.60;;
13374;SDS011;6756;51.354;15.754;2023-07-20T16:19:40;2.33;;;0.80;;
13374;SDS011;6756;51.354;15.754;2023-07-20T16:23:41;2.63;;;0.83;;
13374;SDS011;6756;51.354;15.754;2023-07-20T16:27:45;1.23;;;0.80;;
13374;SDS011;6756;51.354;15.754;2023-07-20T16:31:46;1.27;;;0.77;;
13374;SDS011;6756;51.354;15.754;2023-07-20T16:35:47;0.80;;;0.80;;
13374;SDS011;6756;51.354;15.754;2023-07-20T16:39:51;1.37;;;0.60;;
13374;SDS011;6756;51.354;15.754;2023-07-20T16:43:52;0.80;;;0.57;;
13374;SDS011;6756;51.354;15.754;2023-07-20T16:47:54;0.33;;;0.33;;
13374;SDS011;6756;51.354;15.754;2023-07-20T16:51:56;1.10;;;0.67;;
13374;SDS011;6756;51.354;15.754;2023-07-20T16:55:56;1.37;;;0.67;;
13374;SDS011;6756;51.354;15.754;2023-07-20T16:59:57;0.73;;;0.60;;
13374;SDS011;6756;51.354;15.754;2023-07-20T17:04:01;0.87;;;0.60;;
13374;SDS011;6756;51.354;15.754;2023-07-20T17:08:08;0.63;;;0.53;;
13374;SDS011;6756;51.354;15.754;2023-07-20T17:12:10;1.90;;;0.60;;
13374;SDS011;6756;51.354;15.754;2023-07-20T17:16:11;1.20;;;0.63;;
13374;SDS011;6756;51.354;15.754;2023-07-20T17:20:12;1.53;;;0.50;;
13374;SDS011;6756;51.354;15.754;2023-07-20T17:24:13;2.20;;;0.60;;
13374;SDS011;6756;51.354;15.754;2023-07-20T17:28:17;1.07;;;0.77;;
13374;SDS011;6756;51.354;15.754;2023-07-20T17:32:18;1.43;;;0.63;;
13374;SDS011;6756;51.354;15.754;2023-07-20T17:36:19;2.43;;;0.97;;
13374;SDS011;6756;51.354;15.754;2023-07-20T17:40:21;1.10;;;0.70;;
13374;SDS011;6756;51.354;15.754;2023-07-20T17:44:23;1.00;;;0.90;;
13374;SDS011;6756;51.354;15.754;2023-07-20T17:48:23;1.53;;;0.77;;
13374;SDS011;6756;51.354;15.754;2023-07-20T17:52:24;1.17;;;0.60;;
13374;SDS011;6756;51.354;15.754;2023-07-20T17:56:27;3.40;;;0.70;;
13374;SDS011;6756;51.354;15.754;2023-07-20T18:00:27;1.27;;;0.63;;
13374;SDS011;6756;51.354;15.754;2023-07-20T18:04:30;0.80;;;0.80;;
13374;SDS011;6756;51.354;15.754;2023-07-20T18:08:31;1.30;;;0.60;;
13374;SDS011;6756;51.354;15.754;2023-07-20T18:12:31;1.30;;;0.80;;
13374;SDS011;6756;51.354;15.754;2023-07-20T18:16:32;1.03;;;0.60;;
13374;SDS011;6756;51.354;15.754;2023-07-20T18:20:45;1.40;;;0.80;;
13374;SDS011;6756;51.354;15.754;2023-07-20T18:24:46;1.10;;;0.80;;
13374;SDS011;6756;51.354;15.754;2023-07-20T18:28:48;1.97;;;0.90;;
13374;SDS011;6756;51.354;15.754;2023-07-20T18:32:52;0.67;;;0.67;;
13374;SDS011;6756;51.354;15.754;2023-07-20T18:36:53;2.33;;;0.60;;
13374;SDS011;6756;51.354;15.754;2023-07-20T18:40:54;1.23;;;0.80;;
13374;SDS011;6756;51.354;15.754;2023-07-20T18:44:55;2.97;;;0.93;;
13374;SDS011;6756;51.354;15.754;2023-07-20T18:48:55;2.83;;;1.07;;
13374;SDS011;6756;51.354;15.754;2023-07-20T18:52:58;1.27;;;0.70;;
13374;SDS011;6756;51.354;15.754;2023-07-20T18:57:00;2.83;;;0.90;;
13374;SDS011;6756;51.354;15.754;2023-07-20T19:01:01;1.37;;;0.70;;
13374;SDS011;6756;51.354;15.754;2023-07-20T19:05:03;1.17;;;0.50;;
13374;SDS011;6756;51.354;15.754;2023-07-20T19:09:05;1.40;;;0.90;;
13374;SDS011;6756;51.354;15.754;2023-07-20T19:13:06;1.57;;;0.80;;
13374;SDS011;6756;51.354;15.754;2023-07-20T19:17:07;1.37;;;0.90;;
13374;SDS011;6756;51.354;15.754;2023-07-20T19:21:08;1.23;;;0.70;;
13374;SDS011;6756;51.354;15.754;2023-07-20T19:25:10;1.00;;;0.73;;
13374;SDS011;6756;51.354;15.754;2023-07-20T19:29:11;1.93;;;0.90;;
13374;SDS011;6756;51.354;15.754;2023-07-20T19:33:15;1.27;;;1.00;;
13374;SDS011;6756;51.354;15.754;2023-07-20T19:37:17;1.20;;;0.70;;
13374;SDS011;6756;51.354;15.754;2023-07-20T19:41:17;5.60;;;0.97;;
13374;SDS011;6756;51.354;15.754;2023-07-20T19:45:18;1.93;;;0.80;;
13374;SDS011;6756;51.354;15.754;2023-07-20T19:49:19;1.20;;;1.00;;
13374;SDS011;6756;51.354;15.754;2023-07-20T19:53:23;0.83;;;0.73;;
13374;SDS011;6756;51.354;15.754;2023-07-20T19:57:28;1.10;;;1.00;;
13374;SDS011;6756;51.354;15.754;2023-07-20T20:01:29;0.70;;;0.70;;
13374;SDS011;6756;51.354;15.754;2023-07-20T20:05:30;1.43;;;1.10;;
13374;SDS011;6756;51.354;15.754;2023-07-20T20:09:35;0.97;;;0.87;;
13374;SDS011;6756;51.354;15.754;2023-07-20T20:13:38;1.10;;;0.90;;
13374;SDS011;6756;51.354;15.754;2023-07-20T20:17:38;2.17;;;0.73;;
13374;SDS011;6756;51.354;15.754;2023-07-20T20:21:42;1.43;;;0.97;;
13374;SDS011;6756;51.354;15.754;2023-07-20T20:25:43;1.17;;;0.97;;
13374;SDS011;6756;51.354;15.754;2023-07-20T20:29:48;1.77;;;0.97;;
13374;SDS011;6756;51.354;15.754;2023-07-20T20:33:52;1.17;;;1.07;;
13374;SDS011;6756;51.354;15.754;2023-07-20T20:37:55;2.03;;;0.87;;
13374;SDS011;6756;51.354;15.754;2023-07-20T20:42:02;0.90;;;0.80;;
13374;SDS011;6756;51.354;15.754;2023-07-20T20:46:03;1.10;;;0.83;;
13374;SDS011;6756;51.354;15.754;2023-07-20T20:50:12;1.00;;;0.90;;
13374;SDS011;6756;51.354;15.754;2023-07-20T20:54:15;1.20;;;1.03;;
13374;SDS011;6756;51.354;15.754;2023-07-20T20:58:16;1.10;;;1.00;;
13374;SDS011;6756;51.354;15.754;2023-07-20T21:02:17;0.90;;;0.80;;
13374;SDS011;6756;51.354;15.754;2023-07-20T21:06:18;0.97;;;0.80;;
13374;SDS011;6756;51.354;15.754;2023-07-20T21:10:19;1.20;;;1.00;;
13374;SDS011;6756;51.354;15.754;2023-07-20T21:14:20;1.60;;;0.70;;
13374;SDS011;6756;51.354;15.754;2023-07-20T21:18:23;1.43;;;1.10;;
13374;SDS011;6756;51.354;15.754;2023-07-20T21:22:24;1.40;;;1.30;;
13374;SDS011;6756;51.354;15.754;2023-07-20T21:26:26;1.40;;;1.30;;
13374;SDS011;6756;51.354;15.754;2023-07-20T21:30:28;1.80;;;1.40;;
13374;SDS011;6756;51.354;15.754;2023-07-20T21:34:29;1.33;;;1.13;;
13374;SDS011;6756;51.354;15.754;2023-07-20T21:38:30;1.00;;;0.90;;
13374;SDS011;6756;51.354;15.754;2023-07-20T21:42:33;1.20;;;1.10;;
13374;SDS011;6756;51.354;15.754;2023-07-20T21:46:35;1.43;;;1.33;;
13374;SDS011;6756;51.354;15.754;2023-07-20T21:50:37;0.90;;;0.80;;
13374;SDS011;6756;51.354;15.754;2023-07-20T21:54:39;1.67;;;1.00;;
13374;SDS011;6756;51.354;15.754;2023-07-20T21:58:44;2.87;;;1.10;;
13374;SDS011;6756;51.354;15.754;2023-07-20T22:02:45;1.40;;;1.30;;
13374;SDS011;6756;51.354;15.754;2023-07-20T22:06:46;1.57;;;1.40;;
13374;SDS011;6756;51.354;15.754;2023-07-20T22:10:48;2.10;;;1.40;;
13374;SDS011;6756;51.354;15.754;2023-07-20T22:14:53;2.00;;;1.80;;
13374;SDS011;6756;51.354;15.754;2023-07-20T22:18:57;2.63;;;1.80;;
13374;SDS011;6756;51.354;15.754;2023-07-20T22:22:58;3.00;;;1.60;;
13374;SDS011;6756;51.354;15.754;2023-07-20T22:27:01;1.90;;;1.70;;
13374;SDS011;6756;51.354;15.754;2023-07-20T22:31:06;1.90;;;1.70;;
13374;SDS011;6756;51.354;15.754;2023-07-20T22:35:07;2.20;;;1.90;;
13374;SDS011;6756;51.354;15.754;2023-07-20T22:39:09;2.97;;;2.07;;
13374;SDS011;6756;51.354;15.754;2023-07-20T22:43:16;2.70;;;1.70;;
13374;SDS011;6756;51.354;15.754;2023-07-20T22:47:18;2.20;;;2.00;;
13374;SDS011;6756;51.354;15.754;2023-07-20T22:51:20;2.37;;;1.90;;
13374;SDS011;6756;51.354;15.754;2023-07-20T22:55:21;3.13;;;2.10;;
13374;SDS011;6756;51.354;15.754;2023-07-20T22:59:22;1.70;;;1.60;;
13374;SDS011;6756;51.354;15.754;2023-07-20T23:03:23;2.50;;;2.30;;
13374;SDS011;6756;51.354;15.754;2023-07-20T23:07:24;2.70;;;2.10;;
13374;SDS011;6756;51.354;15.754;2023-07-20T23:11:25;2.37;;;2.10;;
13374;SDS011;6756;51.354;15.754;2023-07-20T23:15:28;2.30;;;2.10;;
13374;SDS011;6756;51.354;15.754;2023-07-20T23:19:30;2.30;;;2.03;;
13374;SDS011;6756;51.354;15.754;2023-07-20T23:23:31;2.43;;;2.23;;
13374;SDS011;6756;51.354;15.754;2023-07-20T23:27:34;2.10;;;1.90;;
13374;SDS011;6756;51.354;15.754;2023-07-20T23:31:35;2.37;;;2.17;;
13374;SDS011;6756;51.354;15.754;2023-07-20T23:35:36;2.27;;;2.07;;
13374;SDS011;6756;51.354;15.754;2023-07-20T23:39:41;2.30;;;2.10;;
13374;SDS011;6756;51.354;15.754;2023-07-20T23:43:45;4.17;;;2.60;;
13374;SDS011;6756;51.354;15.754;2023-07-20T23:47:47;3.63;;;2.70;;
13374;SDS011;6756;51.354;15.754;2023-07-20T23:51:48;2.77;;;2.40;;
13374;SDS011;6756;51.354;15.754;2023-07-20T23:55:49;2.87;;;2.67;;
13374;SDS011;6756;51.354;15.754;2023-07-20T23:59:50;3.10;;;2.73;;
